createdAt,value
2022-10-18T00:01:14.730Z,79.19
2022-10-18T00:06:16.447Z,79.41
2022-10-18T00:08:45.115Z,79.14
2022-10-18T00:11:13.340Z,79.17
2022-10-18T00:29:38.275Z,78.29
2022-10-18T00:32:06.418Z,77.96
2022-10-18T00:34:34.572Z,77.80
2022-10-18T00:37:02.551Z,77.68
2022-10-18T00:39:30.718Z,77.43
2022-10-18T00:41:58.759Z,77.47
2022-10-18T00:44:46.321Z,77.57
2022-10-18T00:47:18.329Z,77.38
2022-10-18T00:49:49.383Z,77.12
2022-10-18T00:52:18.819Z,76.88
2022-10-18T00:54:47.955Z,76.93
2022-10-18T00:57:16.501Z,77.08
2022-10-18T00:59:45.333Z,76.90
2022-10-18T01:02:15.117Z,77.31
2022-10-18T01:04:45.631Z,77.44
2022-10-18T01:07:20.227Z,77.58
2022-10-18T01:09:54.060Z,77.67
2022-10-18T01:12:26.461Z,77.21
2022-10-18T01:15:02.291Z,77.40
2022-10-18T01:17:35.537Z,77.73
2022-10-18T01:20:21.241Z,78.03
2022-10-18T01:22:57.673Z,77.62
2022-10-18T01:25:34.159Z,77.73
2022-10-18T01:28:09.687Z,78.00
2022-10-18T01:30:44.797Z,77.71
2022-10-18T01:33:18.673Z,78.06
2022-10-18T01:35:56.650Z,78.04
2022-10-18T01:38:26.331Z,77.97
2022-10-18T01:40:55.164Z,78.03
2022-10-18T01:43:24.667Z,77.49
2022-10-18T01:45:55.654Z,77.58
2022-10-18T01:48:24.379Z,77.50
2022-10-18T01:50:53.388Z,77.42
2022-10-18T01:53:25.974Z,77.56
2022-10-18T01:55:57.292Z,77.41
2022-10-18T01:58:30.081Z,77.65
2022-10-18T02:01:03.591Z,77.70
2022-10-18T02:03:31.734Z,77.59
2022-10-18T02:06:01.363Z,77.49
2022-10-18T02:08:32.368Z,77.20
2022-10-18T02:11:02.542Z,77.45
2022-10-18T02:13:32.256Z,77.54
2022-10-18T02:16:24.591Z,77.36
2022-10-18T02:18:56.878Z,77.22
2022-10-18T02:21:26.547Z,77.11
2022-10-18T02:23:55.476Z,77.37
2022-10-18T02:26:23.619Z,77.46
2022-10-18T02:28:51.817Z,77.32
2022-10-18T02:31:26.495Z,76.91
2022-10-18T02:33:57.603Z,76.58
2022-10-18T02:36:28.452Z,76.39
2022-10-18T02:38:58.400Z,76.39
2022-10-18T02:41:27.852Z,76.37
2022-10-18T02:43:56.237Z,76.41
2022-10-18T02:48:55.320Z,76.75
2022-10-18T02:51:23.609Z,77.00
2022-10-18T02:53:51.868Z,76.96
2022-10-18T02:56:20.328Z,77.19
2022-10-18T02:58:48.464Z,76.69
2022-10-18T03:01:16.597Z,76.90
2022-10-18T03:03:46.285Z,76.68
2022-10-18T03:06:15.262Z,77.22
2022-10-18T03:08:43.423Z,77.10
2022-10-18T03:11:12.484Z,76.90
2022-10-18T03:13:40.841Z,76.94
2022-10-18T03:16:09.114Z,77.06
2022-10-18T03:18:37.864Z,77.33
2022-10-18T03:21:08.168Z,77.34
2022-10-18T03:23:36.338Z,76.94
2022-10-18T03:26:04.486Z,76.81
2022-10-18T03:28:32.640Z,76.86
2022-10-18T03:31:01.381Z,77.25
2022-10-18T03:33:29.475Z,77.13
2022-10-18T03:35:58.154Z,77.60
2022-10-18T03:38:28.018Z,77.44
2022-10-18T03:40:56.675Z,76.93
2022-10-18T03:43:25.026Z,77.61
2022-10-18T03:48:47.012Z,77.62
2022-10-18T03:51:15.223Z,77.73
2022-10-18T03:53:45.333Z,77.39
2022-10-18T03:56:13.223Z,77.71
2022-10-18T04:01:40.480Z,77.38
2022-10-18T04:04:08.769Z,77.64
2022-10-18T04:06:37.436Z,78.10
2022-10-18T04:09:09.453Z,77.68
2022-10-18T04:11:39.047Z,77.87
2022-10-18T04:14:07.777Z,77.32
2022-10-18T04:19:09.284Z,77.54
2022-10-18T04:21:38.426Z,77.41
2022-10-18T04:24:09.112Z,77.26
2022-10-18T04:26:37.163Z,77.21
2022-10-18T04:29:05.535Z,77.17
2022-10-18T04:31:33.921Z,77.30
2022-10-18T04:34:03.031Z,77.34
2022-10-18T04:36:31.494Z,77.22
2022-10-18T04:38:59.584Z,77.43
2022-10-18T04:41:29.442Z,77.25
2022-10-18T04:43:57.960Z,77.26
2022-10-18T04:46:26.583Z,76.84
2022-10-18T04:48:54.660Z,77.18
2022-10-18T04:51:22.981Z,77.19
2022-10-18T04:53:51.600Z,77.50
2022-10-18T04:56:19.699Z,77.42
2022-10-18T04:58:49.453Z,77.32
2022-10-18T05:01:19.396Z,77.32
2022-10-18T05:03:48.320Z,77.04
2022-10-18T05:06:17.308Z,76.69
2022-10-18T05:08:45.446Z,76.71
2022-10-18T05:11:13.812Z,76.80
2022-10-18T05:13:43.390Z,76.54
2022-10-18T05:16:16.561Z,76.40
2022-10-18T05:18:44.893Z,76.36
2022-10-18T05:21:14.076Z,76.18
2022-10-18T05:23:42.554Z,76.08
2022-10-18T05:26:10.750Z,76.04
2022-10-18T05:28:40.809Z,75.95
2022-10-18T05:31:11.795Z,75.86
2022-10-18T05:33:41.978Z,75.89
2022-10-18T05:36:10.683Z,75.66
2022-10-18T05:38:40.672Z,75.51
2022-10-18T05:41:09.568Z,75.67
2022-10-18T05:43:38.845Z,75.59
2022-10-18T05:46:13.719Z,75.36
2022-10-18T05:48:45.522Z,75.49
2022-10-18T05:51:13.823Z,75.30
2022-10-18T05:53:42.444Z,75.29
2022-10-18T05:56:12.217Z,75.14
2022-10-18T05:58:41.970Z,75.07
2022-10-18T06:01:11.300Z,74.89
2022-10-18T06:03:39.808Z,74.88
2022-10-18T06:06:10.773Z,74.94
2022-10-18T06:08:40.357Z,74.63
2022-10-18T06:11:09.421Z,74.59
2022-10-18T06:13:41.516Z,74.78
2022-10-18T06:16:09.910Z,74.81
2022-10-18T06:18:38.439Z,74.98
2022-10-18T06:21:07.144Z,74.75
2022-10-18T06:23:37.151Z,75.44
2022-10-18T06:26:06.825Z,75.68
2022-10-18T06:28:35.573Z,75.60
2022-10-18T06:31:04.147Z,75.70
2022-10-18T06:33:32.629Z,75.84
2022-10-18T06:36:01.922Z,76.37
2022-10-18T06:38:30.819Z,76.65
2022-10-18T06:41:00.818Z,76.59
2022-10-18T06:43:29.523Z,77.13
2022-10-18T06:48:56.251Z,77.26
2022-10-18T06:51:24.499Z,77.87
2022-10-18T06:54:06.101Z,78.21
2022-10-18T06:56:43.350Z,78.40
2022-10-18T06:59:12.085Z,78.91
2022-10-18T07:01:41.517Z,79.04
2022-10-18T07:04:10.052Z,79.28
2022-10-18T07:06:38.655Z,79.31
2022-10-18T07:09:07.298Z,79.41
2022-10-18T07:11:35.862Z,79.25
2022-10-18T07:14:06.350Z,79.90
2022-10-18T07:16:36.684Z,79.90
2022-10-18T07:19:06.079Z,79.71
2022-10-18T07:21:34.674Z,80.25
2022-10-18T07:24:05.872Z,80.12
2022-10-18T07:26:35.634Z,80.34
2022-10-18T07:29:07.591Z,80.21
2022-10-18T07:31:38.704Z,80.46
2022-10-18T07:34:07.681Z,80.46
2022-10-18T07:36:36.658Z,80.65
2022-10-18T07:39:05.570Z,80.66
2022-10-18T07:41:34.788Z,80.50
2022-10-18T07:44:03.723Z,81.02
2022-10-18T07:46:33.204Z,81.02
2022-10-18T07:49:04.422Z,80.91
2022-10-18T07:51:36.129Z,81.14
2022-10-18T07:54:04.768Z,81.34
2022-10-18T07:56:33.598Z,81.21
2022-10-18T07:59:05.206Z,81.76
2022-10-18T08:01:33.823Z,81.55
2022-10-18T08:04:07.523Z,81.78
2022-10-18T08:06:38.904Z,81.84
2022-10-18T08:09:07.816Z,81.65
2022-10-18T08:11:36.572Z,82.00
2022-10-18T08:14:05.829Z,82.30
2022-10-18T08:25:22.516Z,82.70
2022-10-18T08:27:50.710Z,82.51
2022-10-18T08:30:19.401Z,82.81
2022-10-18T08:32:47.968Z,83.17
2022-10-18T08:35:16.276Z,83.08
2022-10-18T08:37:45.892Z,82.86
2022-10-18T08:40:14.867Z,83.27
2022-10-18T08:42:54.887Z,83.11
2022-10-18T08:48:47.751Z,83.63
2022-10-18T08:51:19.999Z,83.64
2022-10-18T08:56:29.741Z,83.63
2022-10-18T08:58:59.987Z,84.24
2022-10-18T09:01:34.147Z,84.02
2022-10-18T09:04:08.048Z,83.84
2022-10-18T09:06:39.271Z,84.14
2022-10-18T09:12:02.017Z,84.56
2022-10-18T09:14:54.600Z,84.64
2022-10-18T09:17:29.331Z,85.21
2022-10-18T09:20:04.964Z,85.24
2022-10-18T09:22:40.655Z,85.12
2022-10-18T09:25:13.202Z,84.84
2022-10-18T09:27:46.344Z,84.64
2022-10-18T09:30:21.112Z,84.42
2022-10-18T09:32:56.139Z,84.15
2022-10-18T09:35:26.094Z,84.05
2022-10-18T09:37:56.087Z,84.72
2022-10-18T09:40:26.718Z,84.56
2022-10-18T09:42:57.369Z,84.27
2022-10-18T09:45:28.600Z,84.50
2022-10-18T09:48:03.239Z,84.64
2022-10-18T09:50:33.978Z,84.61
2022-10-18T09:53:08.200Z,84.40
2022-10-18T09:55:38.322Z,84.47
2022-10-18T09:58:08.176Z,84.31
2022-10-18T10:00:40.866Z,84.47
2022-10-18T10:03:12.836Z,84.41
2022-10-18T10:05:41.032Z,85.22
2022-10-18T10:08:09.198Z,85.36
2022-10-18T10:10:39.999Z,85.04
2022-10-18T10:13:08.931Z,85.17
2022-10-18T10:15:42.331Z,85.80
2022-10-18T10:18:20.746Z,85.87
2022-10-18T10:20:49.948Z,86.59
2022-10-18T10:23:21.581Z,87.13
2022-10-18T10:25:52.524Z,86.79
2022-10-18T10:28:22.122Z,86.86
2022-10-18T10:30:50.465Z,86.94
2022-10-18T10:33:39.540Z,87.47
2022-10-18T10:36:18.913Z,87.26
2022-10-18T10:38:47.160Z,87.39
2022-10-18T10:41:22.065Z,88.16
2022-10-18T10:43:50.639Z,87.86
2022-10-18T10:46:19.885Z,88.05
2022-10-18T10:48:50.726Z,87.59
2022-10-18T10:51:30.309Z,87.55
2022-10-18T10:54:00.821Z,87.46
2022-10-18T10:56:30.443Z,88.02
2022-10-18T10:59:01.640Z,87.35
2022-10-18T11:01:31.826Z,87.34
2022-10-18T11:04:01.253Z,87.95
2022-10-18T11:06:47.905Z,87.23
2022-10-18T11:09:31.303Z,87.93
2022-10-18T11:12:11.795Z,88.06
2022-10-18T11:14:43.574Z,87.82
2022-10-18T11:17:19.355Z,87.46
2022-10-18T11:19:57.019Z,87.49
2022-10-18T11:22:27.151Z,87.79
2022-10-18T11:24:57.280Z,87.60
2022-10-18T11:27:27.664Z,87.67
2022-10-18T11:30:03.861Z,87.78
2022-10-18T11:32:36.126Z,87.49
2022-10-18T11:35:09.188Z,87.46
2022-10-18T11:37:48.831Z,87.37
2022-10-18T11:40:29.465Z,87.73
2022-10-18T11:43:03.219Z,87.97
2022-10-18T11:45:36.772Z,87.66
2022-10-18T11:48:13.741Z,87.94
2022-10-18T11:50:44.568Z,87.87
2022-10-18T11:53:21.294Z,88.16
2022-10-18T11:55:58.424Z,87.42
2022-10-18T11:58:46.191Z,87.33
2022-10-18T12:01:17.519Z,87.51
2022-10-18T12:03:56.088Z,87.21
2022-10-18T12:06:26.979Z,87.30
2022-10-18T12:08:57.578Z,87.46
2022-10-18T12:11:30.985Z,87.47
2022-10-18T12:14:00.957Z,88.06
2022-10-18T12:16:49.924Z,88.06
2022-10-18T12:19:23.667Z,87.50
2022-10-18T12:21:55.630Z,87.98
2022-10-18T12:24:26.329Z,87.52
2022-10-18T12:27:01.084Z,88.10
2022-10-18T12:29:31.884Z,87.61
2022-10-18T12:32:02.627Z,87.36
2022-10-18T12:34:36.556Z,87.53
2022-10-18T12:37:19.759Z,88.18
2022-10-18T12:40:08.981Z,88.10
2022-10-18T12:42:43.462Z,87.80
2022-10-18T12:45:21.032Z,87.67
2022-10-18T12:50:58.658Z,87.71
2022-10-18T12:53:28.129Z,87.48
2022-10-18T12:55:57.176Z,87.76
2022-10-18T12:58:30.927Z,87.47
2022-10-18T13:01:01.437Z,87.41
2022-10-18T13:03:32.405Z,87.35
2022-10-18T13:06:05.604Z,87.06
2022-10-18T13:08:42.041Z,87.64
2022-10-18T13:11:33.453Z,87.49
2022-10-18T13:14:19.527Z,87.56
2022-10-18T13:16:52.970Z,87.63
2022-10-18T13:19:25.426Z,87.01
2022-10-18T13:21:57.875Z,87.17
2022-10-18T13:24:30.901Z,87.17
2022-10-18T13:30:04.477Z,86.68
2022-10-18T13:32:37.057Z,87.07
2022-10-18T13:35:06.816Z,86.97
2022-10-18T13:37:35.207Z,86.56
2022-10-18T13:40:16.561Z,85.98
2022-10-18T13:42:44.866Z,85.84
2022-10-18T13:45:40.225Z,86.00
2022-10-18T13:48:25.994Z,85.47
2022-10-18T13:50:57.446Z,85.87
2022-10-18T13:53:41.970Z,85.37
2022-10-18T13:56:36.747Z,84.24
2022-10-18T13:59:15.108Z,84.26
2022-10-18T14:01:53.193Z,84.43
2022-10-18T14:04:37.760Z,83.35
2022-10-18T14:07:09.297Z,83.39
2022-10-18T14:09:45.639Z,81.77
2022-10-18T14:12:19.430Z,82.62
2022-10-18T14:14:51.299Z,81.46
2022-10-18T14:17:27.042Z,81.45
2022-10-18T14:19:58.295Z,80.75
2022-10-18T14:22:30.537Z,80.21
2022-10-18T14:25:00.253Z,79.47
2022-10-18T14:27:28.973Z,78.97
2022-10-18T14:30:15.720Z,79.16
2022-10-18T14:32:45.524Z,79.37
2022-10-18T14:35:32.069Z,79.20
2022-10-18T14:38:03.168Z,78.71
2022-10-18T14:40:34.285Z,79.36
2022-10-18T14:43:06.377Z,79.44
2022-10-18T14:45:34.628Z,79.30
2022-10-18T14:48:09.762Z,79.49
2022-10-18T14:50:37.832Z,78.44
2022-10-18T14:53:08.915Z,78.76
2022-10-18T14:55:39.381Z,79.18
2022-10-18T14:58:14.560Z,78.92
2022-10-18T15:00:46.307Z,77.62
2022-10-18T15:03:18.428Z,77.00
2022-10-18T15:05:57.009Z,76.18
2022-10-18T15:08:28.299Z,75.37
2022-10-18T15:10:57.830Z,76.38
2022-10-18T15:13:26.770Z,75.97
2022-10-18T15:15:55.664Z,75.24
2022-10-18T15:18:25.148Z,75.60
2022-10-18T15:21:09.329Z,75.57
2022-10-18T15:23:39.041Z,75.79
2022-10-18T15:26:08.447Z,75.41
2022-10-18T15:28:38.367Z,75.18
2022-10-18T15:31:07.291Z,74.64
2022-10-18T15:36:25.543Z,74.01
2022-10-18T15:39:07.686Z,73.72
2022-10-18T15:41:39.936Z,73.61
2022-10-18T15:44:19.526Z,73.76
2022-10-18T15:46:48.469Z,73.72
2022-10-18T15:49:37.158Z,74.15
2022-10-18T15:52:16.148Z,73.71
2022-10-18T15:57:16.281Z,73.31
2022-10-18T15:59:51.332Z,73.47
2022-10-18T16:02:19.704Z,73.73
2022-10-18T16:04:48.485Z,73.95
2022-10-18T16:07:16.816Z,74.14
2022-10-18T16:09:46.747Z,74.47
2022-10-18T16:12:14.958Z,74.34
2022-10-18T16:14:43.245Z,74.77
2022-10-18T16:17:18.906Z,74.59
2022-10-18T16:19:47.670Z,74.84
2022-10-18T16:22:41.583Z,75.47
2022-10-18T16:25:12.131Z,75.01
2022-10-18T16:27:40.507Z,74.96
2022-10-18T16:30:13.467Z,74.98
2022-10-18T16:32:42.136Z,75.13
2022-10-18T16:35:13.739Z,74.59
2022-10-18T16:37:42.325Z,75.06
2022-10-18T16:40:23.127Z,74.49
2022-10-18T16:42:51.254Z,74.65
2022-10-18T16:45:19.758Z,74.34
2022-10-18T16:47:48.059Z,73.88
2022-10-18T16:50:18.176Z,74.32
2022-10-18T16:52:46.516Z,73.66
2022-10-18T16:55:21.655Z,73.00
2022-10-18T16:57:52.788Z,74.16
2022-10-18T17:03:11.119Z,74.18
2022-10-18T17:05:41.430Z,74.00
2022-10-18T17:08:18.824Z,73.97
2022-10-18T17:10:47.917Z,73.81
2022-10-18T17:13:20.016Z,74.18
2022-10-18T17:15:48.783Z,74.30
2022-10-18T17:22:02.668Z,73.94
2022-10-18T17:24:32.419Z,72.15
2022-10-18T17:27:02.673Z,71.56
2022-10-18T17:29:34.421Z,71.05
2022-10-18T17:32:02.949Z,71.27
2022-10-18T17:34:34.140Z,71.21
2022-10-18T17:37:28.499Z,70.79
2022-10-18T17:39:57.232Z,70.33
2022-10-18T17:42:28.280Z,70.79
2022-10-18T17:44:58.868Z,71.00
2022-10-18T17:47:29.197Z,71.50
2022-10-18T17:49:57.844Z,71.74
2022-10-18T17:52:26.505Z,71.89
2022-10-18T17:54:54.961Z,71.65
2022-10-18T17:57:23.807Z,72.23
2022-10-18T17:59:55.224Z,72.61
2022-10-18T18:02:36.153Z,72.54
2022-10-18T18:05:10.135Z,71.84
2022-10-18T18:07:38.340Z,71.87
2022-10-18T18:10:07.422Z,72.51
2022-10-18T18:12:36.419Z,72.12
2022-10-18T18:15:05.170Z,71.70
2022-10-18T18:17:56.055Z,72.41
2022-10-18T18:20:24.694Z,72.87
2022-10-18T18:22:53.073Z,72.71
2022-10-18T18:25:21.460Z,73.07
2022-10-18T18:27:49.833Z,73.12
2022-10-18T18:30:18.197Z,73.23
2022-10-18T18:32:47.829Z,73.50
2022-10-18T18:35:18.532Z,73.83
2022-10-18T18:37:52.914Z,74.03
2022-10-18T18:40:21.576Z,74.01
2022-10-18T18:43:12.063Z,73.71
2022-10-18T18:45:38.747Z,73.91
2022-10-18T18:48:08.993Z,74.03
2022-10-18T18:50:38.070Z,74.48
2022-10-18T18:53:09.174Z,74.46
2022-10-18T18:55:40.326Z,74.61
2022-10-18T18:58:09.152Z,74.94
2022-10-18T19:00:43.332Z,74.75
2022-10-18T19:03:16.136Z,75.39
2022-10-18T19:05:45.518Z,75.66
2022-10-18T19:08:13.922Z,75.80
2022-10-18T19:10:42.509Z,75.20
2022-10-18T19:13:10.707Z,75.63
2022-10-18T19:15:39.285Z,75.24
2022-10-18T19:18:10.297Z,74.90
2022-10-18T19:20:41.105Z,74.66
2022-10-18T19:23:09.491Z,74.34
2022-10-18T19:25:38.006Z,74.46
2022-10-18T19:28:06.483Z,74.13
2022-10-18T19:30:36.704Z,74.36
2022-10-18T19:33:05.326Z,73.99
2022-10-18T19:35:33.386Z,73.56
2022-10-18T19:38:03.438Z,73.80
2022-10-18T19:40:32.295Z,73.92
2022-10-18T19:43:01.259Z,74.12
2022-10-18T19:45:29.979Z,73.91
2022-10-18T19:47:58.385Z,74.17
2022-10-18T19:53:00.088Z,74.27
2022-10-18T19:55:30.639Z,73.74
2022-10-18T19:57:59.247Z,73.93
2022-10-18T20:00:27.664Z,73.72
2022-10-18T20:02:55.752Z,73.61
2022-10-18T20:05:24.379Z,74.21
2022-10-18T20:07:52.686Z,74.02
2022-10-18T20:10:20.835Z,73.78
2022-10-18T20:12:50.966Z,73.57
2022-10-18T20:15:22.950Z,73.65
2022-10-18T20:17:52.750Z,73.51
2022-10-18T20:20:23.938Z,73.33
2022-10-18T20:22:52.636Z,73.40
2022-10-18T20:25:21.826Z,73.23
2022-10-18T20:27:52.155Z,73.00
2022-10-18T20:30:20.426Z,73.02
2022-10-18T20:32:48.549Z,73.67
2022-10-18T20:35:16.938Z,73.82
2022-10-18T20:37:45.339Z,73.49
2022-10-18T20:40:14.184Z,73.57
2022-10-18T20:42:42.603Z,73.94
2022-10-18T20:45:13.186Z,74.13
2022-10-18T20:47:41.642Z,74.59
2022-10-18T20:50:11.013Z,74.44
2022-10-18T20:52:39.074Z,75.14
2022-10-18T20:55:07.458Z,74.76
2022-10-18T20:57:36.671Z,75.44
2022-10-18T21:00:05.746Z,74.84
2022-10-18T21:02:35.863Z,74.59
2022-10-18T21:05:04.580Z,74.32
2022-10-18T21:07:32.833Z,74.20
2022-10-18T21:10:01.014Z,74.24
2022-10-18T21:12:29.303Z,74.20
2022-10-18T21:14:57.767Z,73.96
2022-10-18T21:17:26.189Z,74.01
2022-10-18T21:19:56.667Z,73.92
2022-10-18T21:22:24.652Z,74.18
2022-10-18T21:24:52.839Z,74.11
2022-10-18T21:27:21.123Z,74.09
2022-10-18T21:29:50.161Z,73.81
2022-10-18T21:32:19.051Z,73.64
2022-10-18T21:34:47.312Z,73.77
2022-10-18T21:37:16.896Z,73.59
2022-10-18T21:39:46.392Z,73.81
2022-10-18T21:42:14.506Z,73.38
2022-10-18T21:44:42.680Z,73.26
2022-10-18T21:47:11.074Z,73.07
2022-10-18T21:49:39.247Z,73.11
2022-10-18T21:52:07.648Z,73.03
2022-10-18T21:54:37.325Z,73.20
2022-10-18T21:57:05.703Z,73.05
2022-10-18T21:59:33.890Z,72.82
2022-10-18T22:02:03.296Z,72.66
2022-10-18T22:04:36.207Z,72.40
2022-10-18T22:07:05.144Z,72.33
2022-10-18T22:09:33.416Z,72.14
2022-10-18T22:12:03.617Z,72.20
2022-10-18T22:14:31.959Z,72.18
2022-10-18T22:17:00.113Z,71.95
2022-10-18T22:19:28.503Z,71.83
2022-10-18T22:21:57.038Z,71.99
2022-10-18T22:24:25.104Z,72.09
2022-10-18T22:26:53.038Z,72.14
2022-10-18T22:29:22.694Z,72.00
2022-10-18T22:31:51.633Z,72.26
2022-10-18T22:34:21.636Z,72.47
2022-10-18T22:36:49.740Z,72.74
2022-10-18T22:39:18.622Z,72.54
2022-10-18T22:41:47.377Z,72.59
2022-10-18T22:44:16.595Z,72.58
2022-10-18T22:46:46.027Z,72.38
2022-10-18T22:49:14.684Z,72.74
2022-10-18T22:51:43.154Z,72.37
2022-10-18T22:54:11.306Z,72.68
2022-10-18T22:56:40.046Z,72.49
2022-10-18T22:59:08.101Z,72.30
2022-10-18T23:01:36.737Z,72.30
2022-10-18T23:04:06.485Z,72.33
2022-10-18T23:06:35.749Z,72.22
2022-10-18T23:09:06.247Z,72.32
2022-10-18T23:11:35.068Z,72.29
2022-10-18T23:14:04.141Z,72.30
2022-10-18T23:16:33.535Z,72.40
2022-10-18T23:19:01.855Z,72.09
2022-10-18T23:21:32.091Z,71.95
2022-10-18T23:24:00.661Z,71.71
2022-10-18T23:26:29.216Z,71.69
2022-10-18T23:28:57.480Z,71.84
2022-10-18T23:31:26.880Z,71.85
2022-10-18T23:33:56.366Z,71.45
2022-10-18T23:36:24.961Z,71.39
2022-10-18T23:38:54.876Z,71.35
2022-10-18T23:41:23.100Z,71.12
2022-10-18T23:43:51.327Z,71.01
2022-10-18T23:46:20.019Z,71.26
2022-10-18T23:48:48.819Z,71.33
2022-10-18T23:51:17.082Z,71.18
2022-10-18T23:53:45.375Z,71.03
2022-10-18T23:56:16.157Z,71.23
2022-10-18T23:58:45.085Z,71.34
